Time;durP1;ratioP1;P1;durP2;ratioP2;P2;SDS_P1;SDS_P2;PMS_P1;PMS_P2;Temp;Humidity;BMP_temperature;BMP_pressure;BME280_temperature;BME280_humidity;BME280_pressure;Samples;Min_cycle;Max_cycle;Signal;HPM_P1;HPM_P2
2021/01/23 00:01:19;;;;;;;55.03;51.40;;;;;;;16.61;38.68;98777.97;4393097;32;34577;-86
2021/01/23 00:03:46;;;;;;;55.85;52.05;;;;;;;16.89;37.98;98785.69;4392383;32;33157;-85
2021/01/23 00:06:14;;;;;;;56.17;52.28;;;;;;;17.19;37.34;98782.63;4393240;32;33615;-86
2021/01/23 00:08:41;;;;;;;55.92;51.95;;;;;;;16.89;37.79;98786.50;4392909;32;35267;-86
2021/01/23 00:11:08;;;;;;;57.50;53.58;;;;;;;16.73;38.13;98785.94;4380345;32;34710;-85
2021/01/23 00:13:36;;;;;;;57.03;53.08;;;;;;;16.52;38.78;98789.16;4393254;32;34462;-86
2021/01/23 00:16:05;;;;;;;56.33;52.42;;;;;;;15.93;39.96;98782.69;4380813;32;34651;-85
2021/01/23 00:18:32;;;;;;;57.08;52.88;;;;;;;16.20;39.41;98777.31;4380633;32;35023;-86
2021/01/23 00:20:59;;;;;;;55.67;51.85;;;;;;;16.64;38.48;98777.75;4392662;32;34320;-87
2021/01/23 00:23:29;;;;;;;55.97;52.03;;;;;;;16.22;39.15;98786.88;4393012;32;33849;-85
2021/01/23 00:25:56;;;;;;;56.08;52.38;;;;;;;16.52;38.66;98776.00;4380612;32;34724;-84
2021/01/23 00:28:23;;;;;;;54.95;51.40;;;;;;;16.30;39.13;98771.41;4392989;32;33729;-86
2021/01/23 00:30:50;;;;;;;55.78;51.88;;;;;;;16.41;38.72;98775.94;4392500;32;34753;-86
2021/01/23 00:33:18;;;;;;;56.10;52.22;;;;;;;15.94;39.61;98776.50;4392961;32;33748;-85
2021/01/23 00:35:45;;;;;;;55.72;51.88;;;;;;;15.49;40.80;98773.37;4392919;32;34643;-84
2021/01/23 00:38:13;;;;;;;55.08;51.37;;;;;;;15.82;40.01;98775.56;4392890;32;34566;-86
2021/01/23 00:40:40;;;;;;;56.13;52.22;;;;;;;16.32;38.83;98767.72;4368200;32;35537;-85
2021/01/23 00:43:08;;;;;;;57.03;53.00;;;;;;;16.46;38.49;98772.03;4405353;32;33323;-85
2021/01/23 00:45:35;;;;;;;55.80;52.00;;;;;;;16.80;37.83;98769.59;4392342;32;34813;-85
2021/01/23 00:48:07;;;;;;;55.90;51.85;;;;;;;16.74;37.78;98772.69;4380625;32;34858;-85
2021/01/23 00:50:35;;;;;;;55.42;51.72;;;;;;;16.60;38.07;98775.47;4380257;32;34324;-85
2021/01/23 00:53:03;;;;;;;55.28;51.28;;;;;;;16.33;38.81;98766.78;4392859;32;33558;-86
2021/01/23 00:55:31;;;;;;;55.35;51.67;;;;;;;16.65;38.21;98776.81;4392757;32;34311;-86
2021/01/23 00:57:58;;;;;;;56.45;52.38;;;;;;;16.85;37.75;98769.28;4380686;32;34879;-83
2021/01/23 01:00:26;;;;;;;54.58;51.05;;;;;;;16.40;38.59;98764.56;4392545;32;33808;-86
2021/01/23 01:02:53;;;;;;;55.55;51.72;;;;;;;15.94;39.67;98760.75;4392665;32;33314;-86
2021/01/23 01:05:21;;;;;;;54.83;51.22;;;;;;;16.37;38.69;98749.84;4392368;32;33919;-85
2021/01/23 01:07:49;;;;;;;54.35;51.00;;;;;;;16.20;39.14;98751.03;4379767;32;36069;-85
2021/01/23 01:10:16;;;;;;;54.95;51.10;;;;;;;16.48;38.56;98759.59;4379964;32;33626;-86
2021/01/23 01:12:43;;;;;;;55.33;51.70;;;;;;;15.93;39.64;98760.81;4379563;32;34018;-86
2021/01/23 01:15:11;;;;;;;54.60;50.85;;;;;;;15.99;39.52;98749.91;4393108;32;32294;-85
2021/01/23 01:17:38;;;;;;;54.55;50.95;;;;;;;15.86;39.75;98747.28;4394352;32;33592;-85
2021/01/23 01:20:08;;;;;;;55.05;51.40;;;;;;;15.35;40.84;98746.25;4381947;32;34832;-85
2021/01/23 01:22:37;;;;;;;54.70;50.95;;;;;;;15.08;41.65;98748.94;4382041;32;34067;-86
2021/01/23 01:25:05;;;;;;;53.78;50.28;;;;;;;16.25;38.98;98748.09;4393936;32;35142;-83
2021/01/23 01:27:32;;;;;;;54.25;50.75;;;;;;;16.33;38.76;98748.38;4394371;32;34782;-85
2021/01/23 01:30:00;;;;;;;54.65;50.88;;;;;;;16.85;37.71;98745.59;4394124;32;34544;-84
2021/01/23 01:32:28;;;;;;;53.97;50.30;;;;;;;16.43;38.53;98745.09;4394160;32;33375;-84
2021/01/23 01:34:55;;;;;;;54.35;50.55;;;;;;;16.56;38.23;98748.53;4408057;32;33420;-85
2021/01/23 01:37:23;;;;;;;54.45;50.75;;;;;;;15.94;39.43;98744.97;4381849;32;33739;-86
2021/01/23 01:39:50;;;;;;;55.42;51.67;;;;;;;16.32;38.64;98746.69;4381594;32;35738;-86
2021/01/23 01:42:17;;;;;;;55.90;51.83;;;;;;;15.95;39.42;98743.19;4394315;32;33341;-85
2021/01/23 01:44:44;;;;;;;55.38;51.63;;;;;;;16.23;38.92;98741.25;4381979;32;33899;-85
2021/01/23 01:47:12;;;;;;;54.50;50.80;;;;;;;15.99;39.46;98734.13;4394187;32;33177;-86
2021/01/23 01:49:39;;;;;;;54.35;50.55;;;;;;;16.60;38.26;98744.72;4394296;32;33850;-84
2021/01/23 01:52:06;;;;;;;55.25;51.53;;;;;;;16.15;39.11;98737.41;4393924;32;34745;-85
2021/01/23 01:54:34;;;;;;;55.38;51.90;;;;;;;16.51;38.44;98745.38;4393689;32;34720;-85
2021/01/23 01:57:01;;;;;;;55.12;51.17;;;;;;;17.03;37.28;98744.28;4381798;32;34677;-85
2021/01/23 01:59:28;;;;;;;55.00;51.42;;;;;;;17.18;36.97;98729.16;4394174;32;33947;-86
2021/01/23 02:02:09;;;;;;;54.03;50.53;;;;;;;17.09;37.05;98740.34;4394562;32;33306;-85
2021/01/23 02:04:43;;;;;;;54.58;51.08;;;;;;;17.24;36.89;98727.00;4394052;32;33558;-85
2021/01/23 02:07:34;;;;;;;54.53;50.83;;;;;;;17.47;36.36;98736.66;4374342;32;34468;-83
2021/01/23 02:10:21;;;;;;;54.00;50.50;;;;;;;17.44;36.52;98710.53;4412386;32;33867;-84
2021/01/23 02:13:10;;;;;;;54.15;50.55;;;;;;;16.96;37.55;98690.41;4398509;32;33303;-86
2021/01/23 02:15:46;;;;;;;54.30;50.75;;;;;;;17.02;37.29;98695.25;4407550;32;33736;-85
2021/01/23 02:18:15;;;;;;;54.00;50.60;;;;;;;17.23;36.89;98694.59;4393930;32;33965;-86
2021/01/23 02:21:20;;;;;;;53.80;50.40;;;;;;;16.16;39.07;98694.38;4381331;32;34172;-85
2021/01/23 02:23:48;;;;;;;54.80;51.00;;;;;;;16.42;38.51;98683.81;4394131;32;33015;-86
2021/01/23 02:26:29;;;;;;;55.47;51.60;;;;;;;15.78;40.02;98673.41;4393707;32;34559;-85
2021/01/23 02:29:03;;;;;;;52.90;49.50;;;;;;;16.47;38.60;98681.69;4381240;32;35268;-85
2021/01/23 02:31:42;;;;;;;53.45;49.95;;;;;;;16.76;37.76;98673.44;4406962;32;33863;-85
2021/01/23 02:34:11;;;;;;;54.03;50.42;;;;;;;16.68;37.93;98668.75;4381447;32;34118;-83
2021/01/23 02:36:42;;;;;;;53.50;49.78;;;;;;;17.03;37.30;98661.84;4381489;32;34627;-85
2021/01/23 02:39:09;;;;;;;54.25;50.65;;;;;;;16.03;39.46;98657.66;4394191;32;33830;-85
2021/01/23 02:41:36;;;;;;;54.63;51.13;;;;;;;15.90;39.74;98661.22;4393747;32;35499;-86
2021/01/23 02:44:04;;;;;;;53.60;50.15;;;;;;;15.98;39.56;98646.63;4393765;32;33571;-87
2021/01/23 02:46:31;;;;;;;53.87;50.30;;;;;;;15.67;40.12;98643.47;4393540;32;33850;-85
2021/01/23 02:48:59;;;;;;;53.25;49.90;;;;;;;16.14;39.29;98640.25;4393720;32;34321;-85
2021/01/23 02:51:54;;;;;;;53.25;49.85;;;;;;;15.75;40.03;98647.38;4393480;32;33579;-84
2021/01/23 02:54:28;;;;;;;54.05;50.47;;;;;;;15.40;40.92;98650.66;4407452;32;33410;-86
2021/01/23 02:56:57;;;;;;;52.92;49.63;;;;;;;15.72;40.07;98656.28;4393579;32;33744;-86
2021/01/23 02:59:25;;;;;;;53.85;50.28;;;;;;;15.51;40.65;98661.22;4393884;32;33910;-86
2021/01/23 03:01:52;;;;;;;53.72;50.17;;;;;;;16.20;39.13;98671.38;4393621;32;34653;-86
2021/01/23 03:04:21;;;;;;;53.08;49.55;;;;;;;15.70;40.18;98669.53;4393356;32;34626;-85
2021/01/23 03:06:48;;;;;;;53.30;49.92;;;;;;;15.92;39.77;98664.59;4406076;32;33381;-84
2021/01/23 03:09:24;;;;;;;53.55;50.17;;;;;;;16.28;39.05;98658.50;4381184;32;33978;-86
2021/01/23 03:11:51;;;;;;;52.60;49.30;;;;;;;16.07;39.33;98655.62;4368637;32;34486;-87
2021/01/23 03:14:20;;;;;;;51.83;48.65;;;;;;;16.17;39.31;98656.66;4407410;32;33159;-86
2021/01/23 03:16:48;;;;;;;53.22;49.70;;;;;;;16.02;39.58;98657.72;4380968;32;33875;-85
2021/01/23 03:19:16;;;;;;;52.25;48.97;;;;;;;15.29;41.42;98665.34;4393663;32;33773;-86
2021/01/23 03:21:46;;;;;;;52.47;49.28;;;;;;;15.88;40.07;98650.00;4393733;32;33780;-85
2021/01/23 03:24:14;;;;;;;52.03;48.72;;;;;;;15.96;39.99;98635.38;4378413;32;322658;-86
2021/01/23 03:26:43;;;;;;;53.13;49.53;;;;;;;16.35;39.07;98643.13;4387538;32;34549;-86
2021/01/23 03:29:10;;;;;;;51.95;48.85;;;;;;;16.35;38.88;98633.47;4405928;32;35119;-86
2021/01/23 03:31:37;;;;;;;52.42;49.03;;;;;;;15.94;39.90;98626.78;4382183;32;33812;-84
2021/01/23 03:34:05;;;;;;;52.03;48.53;;;;;;;15.69;40.31;98631.09;4386021;32;33648;-86
2021/01/23 03:36:33;;;;;;;51.97;48.83;;;;;;;16.25;39.41;98627.19;4383517;32;33846;-84
2021/01/23 03:39:00;;;;;;;52.40;49.17;;;;;;;16.65;38.51;98633.97;4393007;32;34328;-86
2021/01/23 03:41:28;;;;;;;52.10;48.53;;;;;;;16.70;38.29;98618.69;4393826;32;35181;-86
2021/01/23 03:43:55;;;;;;;51.92;48.72;;;;;;;15.70;40.39;98622.25;4393708;32;33931;-86
2021/01/23 03:46:22;;;;;;;52.92;49.72;;;;;;;15.74;40.50;98608.91;4405709;32;33640;-86
2021/01/23 03:48:50;;;;;;;52.17;49.03;;;;;;;15.14;41.92;98617.38;4405992;32;34096;-84
2021/01/23 03:51:17;;;;;;;52.35;48.72;;;;;;;15.50;41.23;98607.91;4368277;32;33010;-85
2021/01/23 03:53:44;;;;;;;51.72;48.60;;;;;;;15.23;42.12;98613.25;4380599;32;33883;-85
2021/01/23 03:56:12;;;;;;;52.72;49.22;;;;;;;15.44;41.68;98608.31;4406875;32;33691;-85
2021/01/23 03:58:40;;;;;;;52.25;48.95;;;;;;;15.22;42.09;98605.50;4368589;32;34812;-85
2021/01/23 04:01:07;;;;;;;52.17;48.87;;;;;;;14.85;43.06;98611.44;4393402;32;34850;-84
2021/01/23 04:03:35;;;;;;;52.35;49.05;;;;;;;15.28;42.31;98612.97;4393496;32;33464;-85
2021/01/23 04:06:04;;;;;;;51.40;48.28;;;;;;;15.86;40.89;98613.31;4393454;32;33931;-85
2021/01/23 04:08:31;;;;;;;51.28;48.17;;;;;;;16.08;40.51;98610.00;4393012;32;35249;-86
2021/01/23 04:10:59;;;;;;;51.37;48.38;;;;;;;16.05;40.76;98620.75;4380959;32;33810;-85
2021/01/23 04:13:26;;;;;;;50.47;47.38;;;;;;;16.60;39.59;98615.88;4380814;32;32185;-84
2021/01/23 04:15:53;;;;;;;51.50;48.10;;;;;;;16.05;41.05;98609.38;4393039;32;34324;-85
2021/01/23 04:18:21;;;;;;;50.70;47.53;;;;;;;15.92;41.32;98612.06;4393126;32;33858;-85
2021/01/23 04:20:49;;;;;;;51.20;48.10;;;;;;;16.28;40.70;98605.94;4380503;32;35380;-87
2021/01/23 04:23:16;;;;;;;50.47;47.30;;;;;;;16.34;40.74;98591.50;4380530;32;34810;-85
2021/01/23 04:25:44;;;;;;;51.47;48.15;;;;;;;16.15;41.34;98586.75;4393321;32;34047;-87
2021/01/23 04:28:14;;;;;;;51.65;48.47;;;;;;;16.03;41.87;98581.47;4380435;32;33936;-86
2021/01/23 04:30:42;;;;;;;51.83;48.63;;;;;;;16.84;40.15;98578.19;4380557;32;34017;-86
2021/01/23 04:33:10;;;;;;;52.05;48.78;;;;;;;16.52;40.90;98586.69;4393297;32;33228;-85
2021/01/23 04:35:40;;;;;;;52.03;48.65;;;;;;;16.91;40.28;98591.75;4393351;32;34589;-84
2021/01/23 04:38:07;;;;;;;51.58;48.47;;;;;;;17.35;39.23;98590.13;4392549;32;34438;-86
2021/01/23 04:40:35;;;;;;;50.78;47.60;;;;;;;17.10;39.80;98597.31;4380657;32;34638;-85
2021/01/23 04:43:03;;;;;;;51.80;48.63;;;;;;;17.87;38.16;98587.88;4380150;32;34194;-86
2021/01/23 04:45:30;;;;;;;51.72;48.42;;;;;;;16.51;41.23;98599.03;4380170;32;34339;-85
2021/01/23 04:47:58;;;;;;;52.33;49.03;;;;;;;15.79;43.25;98591.03;4392864;32;33761;-86
2021/01/23 04:50:25;;;;;;;52.05;48.75;;;;;;;15.47;44.07;98583.66;4394595;32;32885;-85
2021/01/23 04:52:52;;;;;;;51.72;48.65;;;;;;;16.86;41.09;98584.19;4395046;32;33377;-84
2021/01/23 04:55:19;;;;;;;50.88;47.97;;;;;;;16.79;41.20;98601.38;4394498;32;34133;-86
2021/01/23 04:57:47;;;;;;;52.03;48.70;;;;;;;17.51;39.35;98592.44;4397241;32;33892;-84
2021/01/23 05:00:16;;;;;;;51.13;47.92;;;;;;;16.01;43.05;98588.59;4400665;32;35011;-84
2021/01/23 05:02:58;;;;;;;52.15;48.80;;;;;;;16.46;42.08;98571.38;4388282;32;34576;-84
2021/01/23 05:05:26;;;;;;;51.75;48.65;;;;;;;17.02;40.72;98560.22;4408010;32;33500;-84
2021/01/23 05:07:54;;;;;;;51.13;48.00;;;;;;;17.09;40.59;98564.03;4394517;32;34651;-85
2021/01/23 05:10:23;;;;;;;51.90;48.65;;;;;;;17.14;40.43;98553.19;4394155;32;34199;-86
2021/01/23 05:12:52;;;;;;;51.70;48.40;;;;;;;16.67;41.58;98542.63;4394312;32;35084;-84
2021/01/23 05:15:26;;;;;;;51.10;48.10;;;;;;;15.29;44.71;98542.00;4381923;32;33392;-86
2021/01/23 05:18:08;;;;;;;50.97;47.92;;;;;;;15.53;44.36;98523.69;4408324;32;33816;-84
2021/01/23 05:20:45;;;;;;;51.53;48.33;;;;;;;15.48;44.67;98538.91;4381836;32;32510;-87
2021/01/23 05:23:18;;;;;;;52.33;48.80;;;;;;;15.14;45.68;98540.44;4394063;32;34448;-84
2021/01/23 05:25:53;;;;;;;52.20;48.92;;;;;;;15.13;45.59;98542.22;4381609;32;34497;-86
2021/01/23 05:28:35;;;;;;;52.47;49.17;;;;;;;15.30;45.04;98548.06;4394401;32;34706;-86
2021/01/23 05:31:05;;;;;;;52.65;49.45;;;;;;;15.20;45.59;98543.47;4382091;32;34680;-84
2021/01/23 05:33:33;;;;;;;51.55;48.30;;;;;;;14.32;47.72;98548.50;4381848;32;31943;-86
2021/01/23 05:36:11;;;;;;;52.92;49.53;;;;;;;14.17;48.06;98537.22;4394381;32;34740;-87
2021/01/23 05:38:45;;;;;;;52.95;49.83;;;;;;;14.23;48.06;98544.69;4394198;32;34941;-86
2021/01/23 05:41:14;;;;;;;53.47;50.12;;;;;;;14.22;48.36;98534.31;4381525;32;35433;-84
2021/01/23 05:43:46;;;;;;;52.45;49.08;;;;;;;14.45;47.55;98522.31;4381920;32;35200;-87
2021/01/23 05:46:20;;;;;;;53.13;49.72;;;;;;;14.39;47.68;98533.22;4381591;32;32607;-86
2021/01/23 05:48:48;;;;;;;52.55;49.35;;;;;;;14.56;47.32;98532.94;4393935;32;35036;-85
2021/01/23 05:51:17;;;;;;;52.33;49.05;;;;;;;14.24;47.96;98533.28;4381928;32;34750;-86
2021/01/23 05:53:44;;;;;;;53.20;49.83;;;;;;;14.62;46.91;98532.50;4381526;32;33844;-84
2021/01/23 05:56:12;;;;;;;52.95;49.38;;;;;;;14.42;47.56;98535.63;4394341;32;35240;-86
2021/01/23 05:58:42;;;;;;;52.90;49.20;;;;;;;13.93;48.91;98521.31;4407987;32;34126;-86
2021/01/23 06:01:13;;;;;;;53.55;50.00;;;;;;;14.82;46.50;98528.59;4393715;32;33790;-84
2021/01/23 06:03:42;;;;;;;52.85;49.50;;;;;;;14.72;46.77;98521.44;4381630;32;34743;-86
2021/01/23 06:06:10;;;;;;;53.83;50.15;;;;;;;14.60;47.18;98520.44;4381706;32;33667;-84
2021/01/23 06:08:38;;;;;;;53.92;50.42;;;;;;;14.63;47.08;98513.25;4394418;32;33534;-86
2021/01/23 06:11:43;;;;;;;54.42;50.80;;;;;;;14.56;47.32;98514.59;4407530;32;34687;-84
2021/01/23 06:14:37;;;;;;;53.75;50.17;;;;;;;14.72;46.92;98518.81;4381463;32;33763;-84
2021/01/23 06:17:05;;;;;;;54.08;50.65;;;;;;;14.64;46.82;98514.94;4394480;32;34597;-84
2021/01/23 06:19:32;;;;;;;53.63;50.12;;;;;;;14.22;47.81;98514.19;4381687;32;33565;-86
2021/01/23 06:21:59;;;;;;;54.83;51.03;;;;;;;14.15;48.29;98518.16;4408107;32;33920;-84
2021/01/23 06:24:30;;;;;;;53.80;50.30;;;;;;;13.79;49.42;98522.22;4399411;32;33884;-84
2021/01/23 06:26:58;;;;;;;53.75;50.30;;;;;;;13.93;48.98;98524.75;4413567;32;34170;-84
2021/01/23 06:29:38;;;;;;;54.17;50.42;;;;;;;14.17;48.11;98519.75;4397546;32;33634;-86
2021/01/23 06:32:12;;;;;;;54.42;50.58;;;;;;;14.41;47.71;98520.84;4407292;32;33540;-86
2021/01/23 06:34:47;;;;;;;55.15;51.47;;;;;;;13.86;48.97;98529.56;4407966;32;35138;-84
2021/01/23 06:37:33;;;;;;;54.50;50.90;;;;;;;14.06;48.47;98529.22;4407579;32;33892;-84
2021/01/23 06:40:03;;;;;;;54.22;50.70;;;;;;;13.57;50.02;98533.19;4394168;32;33772;-85
2021/01/23 06:42:34;;;;;;;54.65;50.88;;;;;;;14.80;46.65;98529.63;4406062;32;34966;-85
2021/01/23 06:45:26;;;;;;;55.25;51.55;;;;;;;14.44;47.35;98531.09;4381481;32;33193;-85
2021/01/23 06:47:56;;;;;;;56.20;52.25;;;;;;;13.52;50.04;98521.22;4393786;32;34550;-84
2021/01/23 06:50:41;;;;;;;55.28;51.47;;;;;;;14.13;48.52;98523.50;4381711;32;33827;-84
2021/01/23 06:53:17;;;;;;;56.10;52.08;;;;;;;13.62;49.90;98531.94;4394214;32;34699;-85
2021/01/23 06:55:52;;;;;;;56.67;52.78;;;;;;;13.94;48.90;98531.69;4381318;32;33852;-85
2021/01/23 06:58:27;;;;;;;56.20;52.33;;;;;;;13.81;49.56;98518.56;4394049;32;33593;-86
2021/01/23 07:00:57;;;;;;;57.28;53.08;;;;;;;14.10;48.54;98515.00;4381197;32;35894;-86
2021/01/23 07:03:29;;;;;;;56.97;52.92;;;;;;;13.89;48.97;98523.28;4393603;32;33816;-86
2021/01/23 07:06:01;;;;;;;57.72;53.42;;;;;;;13.21;50.83;98537.94;4381290;32;33538;-85
2021/01/23 07:08:33;;;;;;;56.30;52.28;;;;;;;14.09;48.52;98516.75;4381156;32;34773;-85
2021/01/23 07:11:09;;;;;;;56.30;52.33;;;;;;;14.26;47.97;98527.94;4393485;32;33742;-85
2021/01/23 07:13:39;;;;;;;57.80;53.58;;;;;;;14.36;47.60;98521.97;4381140;32;34020;-85
2021/01/23 07:16:06;;;;;;;55.03;51.17;;;;;;;14.39;47.61;98515.69;4393656;32;33479;-84
2021/01/23 07:18:34;;;;;;;55.45;51.60;;;;;;;14.91;46.36;98516.63;4393590;32;34094;-85
2021/01/23 07:21:02;;;;;;;56.95;52.85;;;;;;;14.56;47.31;98532.06;4381232;32;33192;-85
2021/01/23 07:23:29;;;;;;;56.28;52.50;;;;;;;14.09;48.47;98523.78;4381393;32;34504;-84
2021/01/23 07:26:00;;;;;;;54.92;51.30;;;;;;;13.82;49.29;98516.78;4381295;32;33433;-85
2021/01/23 07:28:28;;;;;;;56.78;52.88;;;;;;;14.40;47.70;98522.63;4406258;32;33779;-85
2021/01/23 07:30:55;;;;;;;56.80;52.47;;;;;;;14.19;48.27;98532.72;4407359;32;34180;-84
2021/01/23 07:33:32;;;;;;;57.78;53.67;;;;;;;14.56;47.39;98529.44;4393383;32;34006;-86
2021/01/23 07:36:01;;;;;;;55.65;51.75;;;;;;;14.62;47.17;98522.00;4381538;32;33940;-85
2021/01/23 07:38:29;;;;;;;56.10;52.15;;;;;;;14.64;46.98;98522.78;4406244;32;34614;-85
2021/01/23 07:40:57;;;;;;;53.83;50.42;;;;;;;14.41;47.66;98518.22;4368743;32;33219;-85
2021/01/23 07:43:24;;;;;;;54.13;50.40;;;;;;;15.53;44.93;98528.09;4406073;32;34533;-85
2021/01/23 07:45:55;;;;;;;54.33;50.72;;;;;;;15.01;46.03;98525.53;4393285;32;33336;-86
2021/01/23 07:48:24;;;;;;;54.78;51.08;;;;;;;15.39;45.19;98515.13;4386474;32;34862;-84
2021/01/23 07:50:51;;;;;;;55.15;51.05;;;;;;;14.76;46.56;98529.00;4398726;32;34876;-84
2021/01/23 07:53:22;;;;;;;53.90;50.12;;;;;;;14.73;46.65;98523.13;4383918;32;33958;-86
2021/01/23 07:55:51;;;;;;;53.55;50.15;;;;;;;15.26;45.56;98523.81;4393478;32;33383;-86
2021/01/23 07:58:19;;;;;;;55.12;51.58;;;;;;;14.95;46.25;98530.37;4393141;32;33766;-85
2021/01/23 08:00:46;;;;;;;53.83;50.38;;;;;;;15.14;45.67;98529.94;4380802;32;33539;-83
2021/01/23 08:03:14;;;;;;;54.97;51.28;;;;;;;15.08;45.99;98531.19;4393039;32;34608;-87
2021/01/23 08:05:50;;;;;;;54.88;50.92;;;;;;;14.37;47.68;98535.91;4380621;32;33891;-86
2021/01/23 08:08:33;;;;;;;54.63;51.08;;;;;;;15.08;45.70;98540.88;4380346;32;34918;-86
2021/01/23 08:11:02;;;;;;;55.17;51.55;;;;;;;15.39;45.07;98557.94;4393015;32;33991;-87
2021/01/23 08:13:31;;;;;;;55.28;51.47;;;;;;;15.44;44.90;98555.00;4393114;32;33863;-85
2021/01/23 08:16:12;;;;;;;54.42;50.80;;;;;;;15.49;44.68;98563.41;4392941;32;33636;-86
2021/01/23 08:18:43;;;;;;;54.72;51.05;;;;;;;16.19;42.88;98609.22;4380777;32;33472;-85
2021/01/23 08:21:20;;;;;;;54.20;50.70;;;;;;;16.55;41.71;98631.16;4368234;32;34829;-85
2021/01/23 08:23:48;;;;;;;56.03;51.92;;;;;;;16.17;42.22;98595.38;4379596;32;34943;-86
2021/01/23 08:26:18;;;;;;;54.50;50.95;;;;;;;16.83;41.20;98615.97;4392997;32;33640;-86
2021/01/23 08:28:47;;;;;;;54.78;51.08;;;;;;;16.61;42.15;98614.94;4393145;32;33413;-85
2021/01/23 08:31:22;;;;;;;52.40;49.08;;;;;;;17.07;41.38;98625.62;4392839;32;35213;-87
2021/01/23 08:33:57;;;;;;;53.03;49.55;;;;;;;16.56;41.29;98618.88;4393017;32;33897;-85
2021/01/23 08:36:26;;;;;;;54.10;50.60;;;;;;;17.63;39.07;98630.97;4392795;32;33869;-85
2021/01/23 08:39:00;;;;;;;54.17;50.38;;;;;;;17.69;39.16;98625.22;4380425;32;34404;-85
2021/01/23 08:41:27;;;;;;;54.65;50.92;;;;;;;17.99;38.68;98620.34;4380637;32;33482;-87
2021/01/23 08:43:54;;;;;;;53.87;50.38;;;;;;;18.10;38.69;98616.84;4367762;32;34851;-85
2021/01/23 08:46:21;;;;;;;53.47;50.08;;;;;;;18.23;38.55;98627.22;4380037;32;34209;-85
2021/01/23 08:48:50;;;;;;;52.75;49.55;;;;;;;18.17;38.77;98620.66;4392757;32;35309;-85
2021/01/23 08:51:18;;;;;;;53.05;49.78;;;;;;;18.23;38.57;98609.62;4380009;32;34738;-86
2021/01/23 08:53:46;;;;;;;52.50;49.20;;;;;;;17.86;39.31;98602.81;4404929;32;33362;-84
2021/01/23 08:56:15;;;;;;;52.90;49.53;;;;;;;18.09;38.84;98594.09;4380512;32;33971;-84
2021/01/23 08:58:42;;;;;;;52.80;49.17;;;;;;;17.82;39.25;98608.47;4380392;32;33779;-84
2021/01/23 09:01:10;;;;;;;52.42;49.22;;;;;;;17.62;39.55;98604.78;4379903;32;34292;-86
2021/01/23 09:03:38;;;;;;;53.53;49.92;;;;;;;17.32;40.57;98601.78;4404966;32;33147;-86
2021/01/23 09:06:07;;;;;;;52.58;49.38;;;;;;;17.01;41.76;98611.16;4380145;32;34144;-85
2021/01/23 09:08:35;;;;;;;53.40;50.00;;;;;;;17.05;41.97;98620.50;4380272;32;35528;-86
2021/01/23 09:11:02;;;;;;;53.40;49.90;;;;;;;17.22;41.65;98608.69;4392630;32;33647;-84
2021/01/23 09:13:29;;;;;;;53.67;50.28;;;;;;;17.13;41.92;98614.66;4392234;32;34115;-85
2021/01/23 09:15:56;;;;;;;53.78;50.28;;;;;;;17.28;41.65;98612.63;4371650;32;34690;-85
2021/01/23 09:18:23;;;;;;;53.78;50.42;;;;;;;17.27;41.60;98605.69;4385313;32;33556;-84
2021/01/23 09:20:52;;;;;;;54.35;50.70;;;;;;;17.49;41.22;98586.44;4385304;32;35283;-86
2021/01/23 09:23:21;;;;;;;54.15;50.33;;;;;;;17.65;41.02;98573.75;4392767;32;33783;-87
2021/01/23 09:25:48;;;;;;;52.58;49.33;;;;;;;18.43;39.42;98573.72;4391745;32;33969;-87
2021/01/23 09:28:16;;;;;;;53.55;49.75;;;;;;;18.59;39.19;98572.47;4379815;32;33592;-86
2021/01/23 09:30:44;;;;;;;53.97;50.38;;;;;;;18.00;40.32;98588.59;4379067;32;35287;-85
2021/01/23 09:33:11;;;;;;;55.03;51.45;;;;;;;17.68;41.00;98572.66;4379619;32;33755;-85
2021/01/23 09:35:40;;;;;;;53.25;49.75;;;;;;;17.52;41.84;98573.03;4380441;32;34543;-86
2021/01/23 09:38:09;;;;;;;54.13;50.40;;;;;;;17.97;40.77;98580.09;4381504;32;34095;-87
2021/01/23 09:40:36;;;;;;;53.58;50.08;;;;;;;18.83;38.85;98574.84;4381505;32;34407;-86
2021/01/23 09:43:04;;;;;;;53.00;49.45;;;;;;;18.73;38.60;98563.38;4381578;32;34057;-84
2021/01/23 09:45:31;;;;;;;53.30;50.00;;;;;;;19.16;37.44;98560.63;4394249;32;33446;-86
2021/01/23 09:47:59;;;;;;;52.95;49.58;;;;;;;19.11;36.71;98552.25;4408305;32;33403;-84
2021/01/23 09:50:41;;;;;;;51.63;48.60;;;;;;;19.02;36.70;98553.03;4382739;32;34305;-85
2021/01/23 09:53:09;;;;;;;52.80;49.53;;;;;;;18.94;36.96;98561.59;4381635;32;33757;-86
2021/01/23 09:55:36;;;;;;;53.70;50.00;;;;;;;18.02;39.24;98564.75;4394258;32;33474;-86
2021/01/23 09:58:04;;;;;;;52.92;49.53;;;;;;;18.30;39.14;98559.87;4394125;32;33869;-85
2021/01/23 10:00:31;;;;;;;52.78;49.50;;;;;;;18.94;37.63;98558.16;4381149;32;34436;-86
2021/01/23 10:02:59;;;;;;;52.22;49.03;;;;;;;18.44;38.44;98543.75;4381315;32;34096;-86
2021/01/23 10:05:27;;;;;;;52.83;49.33;;;;;;;17.90;39.18;98558.63;4382161;32;33561;-86
2021/01/23 10:07:54;;;;;;;53.72;50.17;;;;;;;18.09;38.96;98546.63;4381663;32;33631;-86
2021/01/23 10:10:21;;;;;;;53.08;49.38;;;;;;;18.24;38.62;98550.66;4381649;32;33643;-86
2021/01/23 10:12:49;;;;;;;52.30;48.95;;;;;;;18.06;39.14;98550.34;4381865;32;33698;-84
2021/01/23 10:15:16;;;;;;;52.25;49.03;;;;;;;18.11;38.92;98542.06;4394178;32;33293;-87
2021/01/23 10:17:43;;;;;;;52.78;49.47;;;;;;;18.33;38.54;98536.75;4381498;32;34735;-87
2021/01/23 10:20:11;;;;;;;51.50;48.22;;;;;;;18.19;38.85;98531.75;4407383;32;34894;-87
2021/01/23 10:22:38;;;;;;;52.10;48.92;;;;;;;18.35;38.15;98524.25;4381081;32;34128;-85
2021/01/23 10:25:06;;;;;;;52.80;49.47;;;;;;;19.41;36.54;98515.41;4381596;32;33073;-87
2021/01/23 10:27:35;;;;;;;52.72;49.47;;;;;;;19.55;36.41;98522.97;4393955;32;34527;-85
2021/01/23 10:30:03;;;;;;;52.83;49.55;;;;;;;18.68;38.22;98540.03;4381220;32;34479;-85
2021/01/23 10:32:32;;;;;;;53.20;49.67;;;;;;;17.79;40.13;98550.72;4393052;32;33732;-86
2021/01/23 10:34:59;;;;;;;53.10;49.67;;;;;;;17.76;40.07;98549.19;4407479;32;33548;-85
2021/01/23 10:37:26;;;;;;;53.08;49.78;;;;;;;18.13;39.57;98548.06;4407646;32;35226;-86
2021/01/23 10:39:54;;;;;;;53.50;50.05;;;;;;;18.53;38.46;98558.81;4394046;32;34728;-87
2021/01/23 10:42:21;;;;;;;53.72;49.90;;;;;;;18.37;38.69;98553.13;4394110;32;33745;-86
2021/01/23 10:44:48;;;;;;;54.80;51.20;;;;;;;18.15;39.52;98559.34;4382247;32;33306;-86
2021/01/23 10:47:16;;;;;;;53.08;49.55;;;;;;;17.83;40.43;98560.91;4406043;32;33804;-86
2021/01/23 10:49:44;;;;;;;53.15;49.75;;;;;;;18.70;38.58;98546.84;4397968;32;34581;-84
2021/01/23 10:52:11;;;;;;;53.40;49.85;;;;;;;18.71;38.46;98534.50;4388429;32;35149;-83
2021/01/23 10:54:39;;;;;;;53.85;50.35;;;;;;;18.95;38.16;98536.06;4388324;32;33777;-83
2021/01/23 10:57:07;;;;;;;53.63;50.20;;;;;;;18.93;37.53;98536.22;4384260;32;34570;-87
2021/01/23 10:59:34;;;;;;;53.05;49.53;;;;;;;19.45;36.91;98538.81;4381412;32;34629;-86
2021/01/23 11:02:01;;;;;;;53.53;50.12;;;;;;;20.06;35.94;98536.19;4381275;32;33771;-86
2021/01/23 11:04:29;;;;;;;55.17;51.55;;;;;;;20.34;35.46;98524.78;4380709;32;34755;-86
2021/01/23 11:06:57;;;;;;;52.70;49.40;;;;;;;20.25;35.29;98520.34;4393607;32;34970;-85
2021/01/23 11:09:24;;;;;;;53.60;50.28;;;;;;;19.40;36.78;98519.03;4393254;32;33995;-87
2021/01/23 11:11:51;;;;;;;53.65;50.33;;;;;;;19.92;35.63;98511.81;4381014;32;33682;-87
2021/01/23 11:14:19;;;;;;;53.10;49.78;;;;;;;19.71;36.62;98506.59;4381315;32;34057;-85
2021/01/23 11:16:48;;;;;;;53.58;50.20;;;;;;;18.31;39.38;98498.28;4393386;32;33978;-85
2021/01/23 11:19:16;;;;;;;53.15;49.85;;;;;;;19.51;37.04;98493.34;4393766;32;33817;-87
2021/01/23 11:21:43;;;;;;;51.78;48.67;;;;;;;18.51;38.82;98486.06;4393244;32;35711;-85
2021/01/23 11:24:11;;;;;;;51.90;48.25;;;;;;;18.83;38.30;98487.78;4405810;32;33258;-87
2021/01/23 11:26:38;;;;;;;49.83;46.92;;;;;;;19.30;36.85;98482.84;4393425;32;34505;-86
2021/01/23 11:29:06;;;;;;;50.75;47.75;;;;;;;18.06;39.24;98481.84;4381160;32;34104;-87